Time;durP1;ratioP1;P1;durP2;ratioP2;P2;SDS_P1;SDS_P2;PMS_P1;PMS_P2;Temp;Humidity;BMP_temperature;BMP_pressure;BME280_temperature;BME280_humidity;BME280_pressure;Samples;Min_cycle;Max_cycle;Signal;HPM_P1;HPM_P2
2023/05/13 00:01:07;;;;;;;2.57;2.30;;;;;;;13.81;57.56;94978.22;5133333;27;20184;-44
2023/05/13 00:03:34;;;;;;;5.67;2.10;;;;;;;13.81;57.24;94990.25;5114527;27;20193;-45
2023/05/13 00:06:01;;;;;;;2.77;2.40;;;;;;;13.73;57.32;94992.75;5112884;28;20204;-46
2023/05/13 00:08:28;;;;;;;3.43;2.10;;;;;;;13.80;57.30;95009.22;5112955;28;20768;-45
2023/05/13 00:10:56;;;;;;;2.83;2.63;;;;;;;13.80;57.44;95009.22;5112673;28;20714;-44
2023/05/13 00:13:22;;;;;;;2.60;2.40;;;;;;;13.80;57.56;95014.34;5112786;28;20215;-43
2023/05/13 00:15:49;;;;;;;2.93;2.50;;;;;;;13.80;57.64;95011.78;5112586;28;20666;-43
2023/05/13 00:18:16;;;;;;;2.70;2.50;;;;;;;13.77;57.41;95018.06;5112859;28;20658;-44
2023/05/13 00:20:43;;;;;;;3.70;2.53;;;;;;;13.67;57.52;95001.09;5112666;28;20192;-46
2023/05/13 00:23:10;;;;;;;2.90;2.70;;;;;;;13.75;57.80;95019.16;5113436;28;20185;-45
2023/05/13 00:25:37;;;;;;;3.17;2.43;;;;;;;13.81;57.95;95031.38;5113044;28;20221;-46
2023/05/13 00:28:06;;;;;;;2.60;2.40;;;;;;;13.80;58.02;95022.88;5113106;28;20235;-47
2023/05/13 00:30:35;;;;;;;2.77;2.57;;;;;;;13.77;58.29;95025.75;5124782;27;20238;-47
2023/05/13 00:33:02;;;;;;;3.40;3.10;;;;;;;13.76;58.60;95023.31;5133346;27;20192;-44
2023/05/13 00:35:29;;;;;;;2.90;2.50;;;;;;;13.80;58.37;95040.06;5132515;27;20188;-43
2023/05/13 00:37:56;;;;;;;3.10;2.80;;;;;;;13.52;58.65;94993.91;5133320;27;20525;-42
2023/05/13 00:40:24;;;;;;;3.13;2.50;;;;;;;13.77;58.73;95030.91;5133386;27;20596;-42
2023/05/13 00:42:51;;;;;;;3.13;2.77;;;;;;;13.78;59.04;95031.72;5134539;27;20187;-42
2023/05/13 00:45:20;;;;;;;2.63;2.43;;;;;;;13.59;59.22;95001.81;5134189;27;20180;-45
2023/05/13 00:47:47;;;;;;;2.27;2.17;;;;;;;13.76;59.28;95034.41;5132676;27;20192;-44
2023/05/13 00:50:15;;;;;;;3.47;2.70;;;;;;;13.74;59.37;95022.69;5132600;27;20282;-45
2023/05/13 00:52:43;;;;;;;4.80;2.60;;;;;;;13.76;59.43;95018.97;5132979;27;20212;-44
2023/05/13 00:55:10;;;;;;;2.77;2.53;;;;;;;13.72;59.67;95015.09;5132545;27;20197;-45
2023/05/13 00:57:38;;;;;;;2.80;2.50;;;;;;;13.71;59.74;95021.19;5132217;27;20535;-43
2023/05/13 01:00:06;;;;;;;2.97;2.53;;;;;;;13.74;59.78;95012.41;5132217;27;20679;-43
2023/05/13 01:02:41;;;;;;;2.83;2.60;;;;;;;13.73;60.04;95006.44;5132135;27;20640;-44
2023/05/13 01:05:19;;;;;;;2.47;2.27;;;;;;;13.73;60.05;95016.72;5132143;27;20221;-43
2023/05/13 01:07:54;;;;;;;2.73;2.53;;;;;;;13.72;60.16;95022.81;5131903;27;20614;-45
2023/05/13 01:10:34;;;;;;;2.53;2.33;;;;;;;13.68;60.47;95026.63;5131798;27;20199;-43
2023/05/13 01:13:08;;;;;;;3.77;2.80;;;;;;;13.64;60.73;95027.88;5132146;27;20288;-44
2023/05/13 01:15:44;;;;;;;3.40;3.10;;;;;;;13.68;60.93;95038.69;5131967;27;20564;-44
2023/05/13 01:18:15;;;;;;;2.67;2.47;;;;;;;13.66;61.10;95046.53;5131714;27;20612;-46
2023/05/13 01:20:43;;;;;;;3.77;3.00;;;;;;;13.65;61.14;95057.78;5131747;27;20687;-43
2023/05/13 01:23:11;;;;;;;4.57;2.83;;;;;;;13.59;61.23;95045.50;5132044;27;20238;-45
2023/05/13 01:25:39;;;;;;;3.30;3.00;;;;;;;13.58;61.35;95050.81;5131856;27;20228;-45
2023/05/13 01:28:07;;;;;;;3.43;2.70;;;;;;;13.46;61.55;95037.34;5132092;27;20271;-43
2023/05/13 01:30:35;;;;;;;8.30;3.10;;;;;;;13.65;61.53;95064.69;5131736;27;20189;-46
2023/05/13 01:33:03;;;;;;;4.60;3.20;;;;;;;13.66;61.53;95071.44;5131926;27;20428;-47
2023/05/13 01:35:31;;;;;;;3.07;2.77;;;;;;;13.65;61.68;95073.19;5131857;27;20214;-48
2023/05/13 01:37:59;;;;;;;7.73;3.00;;;;;;;13.61;61.73;95063.38;5132122;27;20180;-44
2023/05/13 01:40:28;;;;;;;4.43;2.97;;;;;;;13.64;61.54;95068.19;5131376;27;20224;-43
2023/05/13 01:42:54;;;;;;;3.00;2.70;;;;;;;13.67;61.67;95068.72;5131331;27;20196;-43
2023/05/13 01:45:21;;;;;;;3.50;3.00;;;;;;;13.68;61.86;95064.38;5132012;27;20196;-44
2023/05/13 01:47:48;;;;;;;3.30;3.00;;;;;;;13.69;62.01;95060.88;5131461;27;20600;-44
2023/05/13 01:50:15;;;;;;;5.07;3.03;;;;;;;13.69;62.03;95059.09;5131057;27;20587;-43
2023/05/13 01:52:41;;;;;;;3.50;3.20;;;;;;;13.67;61.95;95066.13;5131309;27;20267;-44
2023/05/13 01:55:10;;;;;;;5.73;3.13;;;;;;;13.67;62.03;95063.56;5132040;27;20198;-44
2023/05/13 01:57:38;;;;;;;4.20;3.10;;;;;;;13.69;62.04;95061.69;5132414;27;20661;-44
2023/05/13 02:00:06;;;;;;;3.87;3.17;;;;;;;13.70;61.75;95057.34;5133009;27;20184;-44
2023/05/13 02:02:33;;;;;;;3.10;2.90;;;;;;;13.70;62.11;95052.19;5134359;27;20560;-45
2023/05/13 02:05:00;;;;;;;3.30;3.00;;;;;;;13.66;61.80;95063.72;5134736;27;20184;-45
2023/05/13 02:07:27;;;;;;;3.97;3.37;;;;;;;13.72;62.04;95068.25;5131094;27;20188;-46
2023/05/13 02:09:58;;;;;;;3.97;3.03;;;;;;;13.71;61.95;95054.59;5130852;27;20224;-46
2023/05/13 02:12:25;;;;;;;2.80;2.60;;;;;;;13.73;61.95;95057.03;5130676;27;20200;-44
2023/05/13 02:14:53;;;;;;;7.07;3.70;;;;;;;13.71;62.07;95059.75;5131093;27;20192;-45
2023/05/13 02:17:20;;;;;;;3.50;3.20;;;;;;;13.71;62.05;95064.09;5130885;27;20203;-45
2023/05/13 02:19:47;;;;;;;3.97;2.93;;;;;;;13.72;62.13;95063.13;5130613;27;20191;-43
2023/05/13 02:22:14;;;;;;;3.50;3.20;;;;;;;13.65;62.06;95050.06;5130644;27;20181;-45
2023/05/13 02:24:41;;;;;;;4.20;3.40;;;;;;;13.72;62.13;95065.69;5129922;27;20239;-46
2023/05/13 02:27:11;;;;;;;5.93;3.37;;;;;;;13.69;62.15;95066.00;5130651;27;20288;-43
2023/05/13 02:29:38;;;;;;;3.13;2.80;;;;;;;13.70;62.34;95068.44;5130639;27;20216;-43
2023/05/13 02:32:07;;;;;;;5.30;3.30;;;;;;;13.67;62.56;95068.72;5130607;27;20644;-44
2023/05/13 02:34:34;;;;;;;3.30;3.00;;;;;;;13.65;62.37;95060.34;5129599;27;20573;-44
2023/05/13 02:37:00;;;;;;;3.97;3.07;;;;;;;13.70;62.48;95073.56;5130525;27;20199;-44
2023/05/13 02:39:27;;;;;;;3.43;3.13;;;;;;;13.72;62.38;95065.69;5129814;27;20192;-43
2023/05/13 02:41:54;;;;;;;3.83;3.33;;;;;;;13.69;62.38;95066.81;5130236;27;20187;-44
2023/05/13 02:44:21;;;;;;;5.70;3.20;;;;;;;13.73;62.62;95080.16;5129797;27;20189;-43
2023/05/13 02:46:48;;;;;;;4.03;3.40;;;;;;;13.73;62.92;95085.28;5109857;28;20574;-44
2023/05/13 02:49:16;;;;;;;3.70;3.20;;;;;;;13.71;62.75;95082.88;5109948;28;20219;-42
2023/05/13 02:51:42;;;;;;;3.83;3.23;;;;;;;13.73;62.79;95080.16;5109939;28;20192;-44
2023/05/13 02:54:09;;;;;;;5.37;3.60;;;;;;;13.71;62.86;95072.59;5113229;27;20181;-44
2023/05/13 02:56:36;;;;;;;3.33;3.03;;;;;;;13.65;63.03;95075.78;5130195;27;20188;-44
2023/05/13 02:59:03;;;;;;;5.13;3.23;;;;;;;13.70;63.00;95096.69;5130735;27;20192;-43
2023/05/13 03:01:30;;;;;;;4.67;3.37;;;;;;;13.71;63.13;95093.16;5130300;27;20383;-46
2023/05/13 03:03:56;;;;;;;3.93;3.50;;;;;;;13.70;62.93;95096.69;5130541;27;20203;-44
2023/05/13 03:06:25;;;;;;;3.80;2.90;;;;;;;13.70;63.31;95098.47;5129526;27;20626;-43
2023/05/13 03:08:51;;;;;;;3.53;3.23;;;;;;;13.71;63.27;95094.94;5129976;27;20192;-45
2023/05/13 03:11:18;;;;;;;4.17;2.90;;;;;;;13.70;63.15;95096.69;5129645;27;20184;-42
2023/05/13 03:13:45;;;;;;;4.33;3.23;;;;;;;13.69;63.01;95095.09;5129985;28;20741;-46
2023/05/13 03:16:12;;;;;;;4.57;3.00;;;;;;;13.71;63.37;95095.75;5129878;28;20180;-44
2023/05/13 03:18:38;;;;;;;4.63;3.27;;;;;;;13.72;63.28;95102.50;5133818;27;20215;-46
2023/05/13 03:21:05;;;;;;;3.53;3.23;;;;;;;13.69;63.35;95089.94;5134438;27;20188;-46
2023/05/13 03:23:33;;;;;;;5.67;3.40;;;;;;;13.73;63.43;95095.59;5134096;27;20191;-41
2023/05/13 03:26:00;;;;;;;4.00;3.40;;;;;;;13.67;63.18;95084.13;5133777;27;20299;-43
2023/05/13 03:28:27;;;;;;;4.53;3.23;;;;;;;13.75;63.29;95091.13;5133915;27;20198;-44
2023/05/13 03:30:54;;;;;;;6.67;3.43;;;;;;;13.77;63.12;95099.47;5134077;27;20223;-44
2023/05/13 03:33:21;;;;;;;5.50;3.30;;;;;;;13.78;63.46;95101.13;5134504;27;20207;-46
2023/05/13 03:35:48;;;;;;;3.93;3.27;;;;;;;13.64;63.31;95074.13;5134454;27;20261;-46
2023/05/13 03:38:15;;;;;;;5.13;3.03;;;;;;;13.58;63.08;95071.38;5133594;27;20203;-44
2023/05/13 03:40:43;;;;;;;7.20;3.43;;;;;;;13.82;63.18;95115.28;5134155;27;20291;-46
2023/05/13 03:43:10;;;;;;;3.33;3.00;;;;;;;13.84;63.00;95115.94;5133731;27;20248;-44
2023/05/13 03:45:37;;;;;;;5.93;3.50;;;;;;;13.88;62.95;95119.03;5133560;27;20679;-45
2023/05/13 03:48:04;;;;;;;4.60;3.27;;;;;;;13.88;62.70;95112.13;5133736;27;20196;-45
2023/05/13 03:50:31;;;;;;;4.30;3.30;;;;;;;13.92;62.89;95116.00;5133626;27;20710;-44
2023/05/13 03:52:57;;;;;;;3.43;3.13;;;;;;;13.95;62.71;95120.88;5133388;27;20188;-45
2023/05/13 03:55:24;;;;;;;5.10;3.37;;;;;;;13.97;62.83;95131.00;5134935;27;20692;-45
2023/05/13 03:57:52;;;;;;;4.23;3.27;;;;;;;13.99;62.71;95131.66;5134157;27;20275;-43
2023/05/13 04:00:19;;;;;;;4.17;3.47;;;;;;;13.99;62.65;95137.63;5133409;27;20277;-46
2023/05/13 04:02:46;;;;;;;5.40;3.23;;;;;;;14.04;62.62;95144.88;5134280;27;20181;-45
2023/05/13 04:05:13;;;;;;;4.30;3.90;;;;;;;14.06;63.00;95140.38;5133404;27;20200;-47
2023/05/13 04:07:40;;;;;;;3.70;3.40;;;;;;;14.08;62.76;95142.84;5133639;27;20189;-46
2023/05/13 04:10:09;;;;;;;3.80;3.40;;;;;;;13.94;62.76;95121.00;5132946;27;20647;-44
2023/05/13 04:12:36;;;;;;;4.47;3.50;;;;;;;14.14;62.57;95153.31;5133332;27;20645;-46
2023/05/13 04:15:05;;;;;;;3.47;3.17;;;;;;;14.17;62.57;95150.47;5132910;27;20292;-45
2023/05/13 04:17:32;;;;;;;3.90;3.50;;;;;;;14.18;62.61;95151.28;5133498;27;20176;-44
2023/05/13 04:19:58;;;;;;;4.40;4.00;;;;;;;14.24;62.60;95148.91;5133198;27;20188;-43
2023/05/13 04:22:25;;;;;;;5.23;3.70;;;;;;;14.20;62.77;95136.47;5133088;27;20188;-45
2023/05/13 04:24:55;;;;;;;8.03;4.00;;;;;;;14.32;62.32;95155.88;5132975;27;20235;-45
2023/05/13 04:27:22;;;;;;;4.17;3.70;;;;;;;14.37;62.55;95161.38;5133222;27;20204;-43
2023/05/13 04:29:49;;;;;;;6.57;4.03;;;;;;;14.41;62.50;95154.97;5132296;27;20277;-46
2023/05/13 04:32:20;;;;;;;4.10;3.70;;;;;;;14.48;62.33;95155.19;5132899;27;20200;-47
2023/05/13 04:34:47;;;;;;;5.57;3.83;;;;;;;14.54;62.21;95163.16;5132711;27;20189;-43
2023/05/13 04:37:14;;;;;;;5.63;3.97;;;;;;;14.65;62.07;95164.69;5133013;27;20260;-43
2023/05/13 04:39:41;;;;;;;6.30;3.77;;;;;;;14.75;61.72;95169.72;5132964;27;20191;-45
2023/05/13 04:42:08;;;;;;;3.47;3.23;;;;;;;14.86;61.75;95169.47;5132540;27;20669;-44
2023/05/13 04:44:35;;;;;;;4.17;3.57;;;;;;;14.99;61.37;95172.44;5132684;27;20652;-46
2023/05/13 04:47:01;;;;;;;3.70;3.30;;;;;;;14.59;61.09;95088.03;5132553;27;20188;-47
2023/05/13 04:49:30;;;;;;;4.57;4.17;;;;;;;15.20;61.08;95166.94;5132876;27;20219;-44
2023/05/13 04:51:57;;;;;;;4.30;3.30;;;;;;;15.28;60.95;95164.38;5132773;27;20181;-44
2023/05/13 04:54:24;;;;;;;3.57;3.27;;;;;;;15.36;60.82;95170.50;5132648;27;20204;-44
2023/05/13 04:56:51;;;;;;;3.90;3.60;;;;;;;15.44;60.68;95168.78;5132708;27;20196;-47
2023/05/13 04:59:18;;;;;;;3.50;3.20;;;;;;;15.52;60.48;95165.44;5132212;27;20180;-44
2023/05/13 05:01:45;;;;;;;5.17;3.40;;;;;;;15.42;60.18;95121.75;5132069;27;20653;-47
2023/05/13 05:04:12;;;;;;;4.30;3.90;;;;;;;15.82;59.83;95152.97;5132636;27;20641;-46
2023/05/13 05:06:40;;;;;;;4.23;3.87;;;;;;;15.98;59.38;95150.41;5132079;27;20635;-46
2023/05/13 05:09:07;;;;;;;5.10;3.60;;;;;;;16.10;59.01;95156.06;5132485;27;20177;-44
2023/05/13 05:11:34;;;;;;;4.53;3.80;;;;;;;16.15;58.65;95154.63;5132329;27;20644;-47
2023/05/13 05:14:01;;;;;;;3.60;3.30;;;;;;;16.11;58.49;95144.78;5132262;27;20196;-43
2023/05/13 05:16:27;;;;;;;4.80;3.73;;;;;;;16.28;58.59;95170.44;5133218;27;20176;-45
2023/05/13 05:18:54;;;;;;;4.87;4.00;;;;;;;16.32;58.43;95168.34;5132553;27;20272;-46
2023/05/13 05:21:21;;;;;;;3.90;3.10;;;;;;;16.34;58.45;95171.56;5132483;27;20185;-43
2023/05/13 05:23:49;;;;;;;5.90;4.03;;;;;;;16.37;58.27;95162.69;5131750;27;20184;-44
2023/05/13 05:26:16;;;;;;;4.30;3.50;;;;;;;16.34;57.97;95150.09;5132136;27;20239;-45
2023/05/13 05:28:43;;;;;;;6.17;3.83;;;;;;;16.55;57.96;95173.66;5131997;27;20196;-43
2023/05/13 05:31:10;;;;;;;5.20;3.30;;;;;;;16.49;57.76;95141.56;5132564;27;20216;-43
2023/05/13 05:33:37;;;;;;;4.20;3.40;;;;;;;16.68;57.48;95173.16;5132750;27;20616;-45
2023/05/13 05:36:04;;;;;;;4.60;3.40;;;;;;;16.72;57.63;95166.72;5132454;27;20635;-44
2023/05/13 05:38:31;;;;;;;3.80;3.43;;;;;;;16.76;57.56;95165.44;5132180;27;20187;-52
2023/05/13 05:40:59;;;;;;;4.87;3.03;;;;;;;16.80;57.24;95171.91;5132002;27;20205;-46
2023/05/13 05:43:26;;;;;;;7.70;3.90;;;;;;;16.86;57.11;95176.38;5133029;27;20196;-42
2023/05/13 05:45:53;;;;;;;4.10;3.60;;;;;;;16.90;56.83;95169.13;5131569;27;20195;-42
2023/05/13 05:48:19;;;;;;;3.07;2.77;;;;;;;16.95;56.83;95177.97;5131883;27;20185;-44
2023/05/13 05:50:47;;;;;;;5.47;3.40;;;;;;;17.09;56.46;95178.28;5131326;27;20207;-45
2023/05/13 05:53:14;;;;;;;4.30;3.30;;;;;;;17.20;56.09;95175.34;5131489;27;20195;-45
2023/05/13 05:55:41;;;;;;;5.37;3.60;;;;;;;17.31;55.93;95174.97;5132515;27;20602;-45
2023/05/13 05:58:15;;;;;;;3.90;3.50;;;;;;;17.44;55.74;95179.59;5132009;27;20188;-43
2023/05/13 06:00:42;;;;;;;4.53;3.67;;;;;;;17.48;55.73;95173.13;5131551;27;20667;-45
2023/05/13 06:03:09;;;;;;;4.07;3.37;;;;;;;17.55;55.71;95185.22;5131715;27;20211;-45
2023/05/13 06:05:36;;;;;;;6.77;4.43;;;;;;;17.63;55.57;95186.19;5131603;27;20695;-45
2023/05/13 06:08:03;;;;;;;4.07;3.67;;;;;;;17.63;55.42;95184.38;5131324;27;20184;-45
2023/05/13 06:10:30;;;;;;;3.63;3.27;;;;;;;17.69;55.21;95182.91;5130980;27;20220;-43
2023/05/13 06:12:56;;;;;;;3.97;3.53;;;;;;;17.77;55.30;95181.09;5111513;27;20207;-46
2023/05/13 06:15:24;;;;;;;4.97;3.47;;;;;;;17.86;54.86;95191.41;5110065;28;20211;-44
2023/05/13 06:17:51;;;;;;;5.20;3.70;;;;;;;17.93;54.74;95193.16;5110363;28;20186;-47
2023/05/13 06:20:18;;;;;;;3.77;3.47;;;;;;;18.01;54.75;95192.31;5110017;28;20249;-46
2023/05/13 06:22:45;;;;;;;3.50;3.20;;;;;;;18.08;54.49;95189.84;5110487;28;20197;-47
2023/05/13 06:25:12;;;;;;;6.07;3.60;;;;;;;18.15;54.43;95190.75;5110227;28;20609;-47
2023/05/13 06:27:39;;;;;;;4.27;3.57;;;;;;;18.25;54.22;95193.94;5110070;28;20184;-46
2023/05/13 06:30:07;;;;;;;8.47;2.90;;;;;;;18.69;82.57;95193.25;5110529;28;20204;-46
2023/05/13 06:32:35;;;;;;;10.97;2.80;;;;;;;19.20;83.37;95186.47;5109956;28;20197;-45
2023/05/13 06:35:02;;;;;;;6.90;3.00;;;;;;;19.72;79.78;95195.94;5117928;27;20611;-46
2023/05/13 06:37:28;;;;;;;7.20;3.47;;;;;;;20.03;76.46;95190.53;5130761;27;20192;-46
2023/05/13 06:39:55;;;;;;;7.67;3.93;;;;;;;20.27;72.81;95199.75;5129865;27;20232;-45
2023/05/13 06:42:22;;;;;;;10.73;3.57;;;;;;;20.30;70.31;95181.19;5129651;27;20257;-45
2023/05/13 06:44:49;;;;;;;4.70;3.20;;;;;;;20.54;68.01;95187.81;5130032;27;20810;-44
2023/05/13 06:47:16;;;;;;;9.80;3.53;;;;;;;20.65;66.45;95190.94;5129547;27;20627;-45
2023/05/13 06:49:44;;;;;;;6.03;3.47;;;;;;;20.73;65.05;95188.19;5130355;27;20414;-46
2023/05/13 06:52:11;;;;;;;7.03;3.83;;;;;;;20.82;63.93;95194.84;5129870;27;20188;-46
2023/05/13 06:54:38;;;;;;;6.78;3.08;;;;;;;20.78;62.95;95183.22;5130389;27;20582;-44
2023/05/13 06:57:06;;;;;;;4.50;3.43;;;;;;;20.99;61.91;95200.59;5130607;27;20224;-42
2023/05/13 06:59:33;;;;;;;4.03;3.47;;;;;;;21.05;61.30;95192.00;5130848;27;20195;-41
2023/05/13 07:02:00;;;;;;;3.27;2.93;;;;;;;21.10;60.07;95192.25;5130547;27;20558;-44
2023/05/13 07:04:28;;;;;;;3.80;2.85;;;;;;;21.17;59.29;95190.50;5128878;27;20195;-45
2023/05/13 07:06:56;;;;;;;8.45;3.03;;;;;;;21.25;58.35;95200.75;5129724;27;20211;-45
2023/05/13 07:09:23;;;;;;;6.65;3.33;;;;;;;21.38;57.77;95200.06;5129839;27;20614;-44
2023/05/13 07:11:49;;;;;;;6.70;2.83;;;;;;;21.54;56.91;95206.72;5130011;27;20224;-45
2023/05/13 07:14:16;;;;;;;6.82;3.10;;;;;;;21.73;56.08;95208.63;5130283;28;20180;-44
2023/05/13 07:16:43;;;;;;;4.28;3.03;;;;;;;21.89;55.50;95211.88;5130408;28;20218;-43
2023/05/13 07:19:10;;;;;;;4.72;3.08;;;;;;;21.96;54.91;95220.53;5130998;28;20676;-46
2023/05/13 07:21:37;;;;;;;4.53;3.05;;;;;;;22.00;54.51;95225.16;5108088;28;20199;-46
2023/05/13 07:24:05;;;;;;;4.57;2.60;;;;;;;22.07;53.81;95229.59;5117605;28;20641;-44
2023/05/13 07:26:32;;;;;;;4.75;2.97;;;;;;;22.16;53.67;95225.84;5130304;28;20188;-45
2023/05/13 07:28:59;;;;;;;6.40;3.40;;;;;;;22.22;53.24;95227.66;5131192;28;20196;-44
2023/05/13 07:31:26;;;;;;;3.55;2.80;;;;;;;22.24;52.91;95218.66;5130205;28;20593;-45
2023/05/13 07:33:53;;;;;;;6.00;3.40;;;;;;;22.32;52.35;95224.66;5129271;28;20204;-43
2023/05/13 07:36:21;;;;;;;3.67;2.95;;;;;;;22.44;51.86;95223.09;5127994;28;20192;-45
2023/05/13 07:38:48;;;;;;;5.45;3.33;;;;;;;22.63;51.27;95222.31;5130180;27;20190;-43
2023/05/13 07:41:16;;;;;;;6.00;2.92;;;;;;;22.92;50.64;95223.75;5127784;27;20200;-45
2023/05/13 07:43:43;;;;;;;5.72;2.70;;;;;;;23.27;50.47;95219.13;5107068;28;20258;-48
2023/05/13 07:46:09;;;;;;;3.63;2.83;;;;;;;23.73;52.89;95225.25;5122520;28;20212;-45
2023/05/13 07:48:36;;;;;;;11.20;4.85;;;;;;;24.19;54.66;95216.41;5127413;28;20188;-44
2023/05/13 07:51:03;;;;;;;6.30;3.83;;;;;;;24.64;54.45;95224.22;5127050;28;20212;-46
2023/05/13 07:53:30;;;;;;;10.05;3.55;;;;;;;25.04;53.57;95227.31;5113067;27;20188;-47
2023/05/13 07:55:57;;;;;;;13.30;3.88;;;;;;;25.37;53.20;95232.28;5126527;28;20189;-45
2023/05/13 07:58:25;;;;;;;7.90;3.50;;;;;;;25.66;53.39;95227.38;5126962;28;20181;-45
2023/05/13 08:00:52;;;;;;;8.88;3.80;;;;;;;25.79;52.81;95192.38;5126855;28;20261;-47
2023/05/13 08:03:19;;;;;;;25.80;4.18;;;;;;;26.18;52.50;95218.09;5128231;27;20276;-46
2023/05/13 08:05:46;;;;;;;9.82;3.65;;;;;;;26.51;51.75;95219.47;5130118;27;20643;-48
2023/05/13 08:08:13;;;;;;;11.05;3.15;;;;;;;26.84;51.50;95216.34;5130844;27;20181;-45
2023/05/13 08:10:40;;;;;;;6.50;3.25;;;;;;;27.15;50.68;95220.50;5130355;27;20778;-47
2023/05/13 08:13:07;;;;;;;6.97;3.50;;;;;;;27.44;50.22;95218.00;5130222;27;20196;-46
2023/05/13 08:15:35;;;;;;;12.10;3.42;;;;;;;27.68;49.64;95209.06;5133174;27;20188;-46
2023/05/13 08:18:02;;;;;;;7.80;3.10;;;;;;;27.92;48.91;95207.19;5132852;27;20284;-42
2023/05/13 08:20:29;;;;;;;9.40;3.10;;;;;;;28.11;48.98;95201.75;5133425;27;20553;-44
2023/05/13 08:22:57;;;;;;;12.18;3.83;;;;;;;28.22;48.62;95196.44;5132530;27;20196;-46
2023/05/13 08:25:23;;;;;;;12.88;3.17;;;;;;;28.37;48.42;95197.78;5133099;27;20228;-47
2023/05/13 08:27:50;;;;;;;9.45;4.00;;;;;;;28.59;48.22;95196.09;5133267;27;20192;-47
2023/05/13 08:30:17;;;;;;;10.05;3.92;;;;;;;28.90;47.63;95201.84;5132952;27;20199;-46
2023/05/13 08:32:46;;;;;;;11.02;3.47;;;;;;;29.20;47.11;95196.25;5133270;27;20188;-47
2023/05/13 08:35:13;;;;;;;7.70;3.30;;;;;;;29.49;46.62;95194.25;5133122;27;20667;-47
2023/05/13 08:37:39;;;;;;;8.43;3.30;;;;;;;29.78;46.09;95196.75;5133289;27;20192;-44
2023/05/13 08:40:07;;;;;;;10.52;3.67;;;;;;;30.03;45.69;95198.91;5134267;27;20193;-48
2023/05/13 08:42:38;;;;;;;10.38;3.60;;;;;;;30.24;45.29;95190.97;5132043;27;20211;-43
2023/05/13 08:45:08;;;;;;;5.82;3.20;;;;;;;30.45;44.79;95199.91;5132660;27;20674;-46
2023/05/13 08:47:43;;;;;;;4.22;3.00;;;;;;;30.62;44.45;95197.16;5132406;27;20199;-44
2023/05/13 08:50:12;;;;;;;6.10;2.92;;;;;;;30.65;43.77;95175.50;5133052;27;20187;-47
2023/05/13 08:52:39;;;;;;;6.57;3.08;;;;;;;30.84;43.81;95177.81;5132423;27;20208;-45
2023/05/13 08:55:08;;;;;;;4.75;2.97;;;;;;;31.06;43.32;95188.28;5132985;27;20279;-46
2023/05/13 08:57:34;;;;;;;6.15;3.22;;;;;;;31.18;43.04;95187.03;5133161;27;20684;-45
2023/05/13 09:00:01;;;;;;;3.90;2.80;;;;;;;31.25;42.62;95186.78;5136965;27;20605;-47
2023/05/13 09:02:28;;;;;;;4.30;2.83;;;;;;;31.29;42.14;95185.25;5133035;27;20266;-45
2023/05/13 09:04:57;;;;;;;8.18;3.17;;;;;;;31.30;42.26;95164.91;5133066;27;20668;-45
2023/05/13 09:07:25;;;;;;;4.20;2.95;;;;;;;31.28;42.11;95167.81;5133266;27;20189;-45
2023/05/13 09:09:52;;;;;;;5.05;2.78;;;;;;;31.24;41.71;95172.78;5132109;27;20657;-46
2023/05/13 09:12:47;;;;;;;10.45;2.92;;;;;;;31.20;41.67;95161.13;5132360;27;20246;-47
2023/05/13 09:15:16;;;;;;;5.55;3.38;;;;;;;31.16;41.49;95164.53;5132528;27;20180;-44
2023/05/13 09:17:44;;;;;;;4.78;3.10;;;;;;;31.12;41.84;95158.16;5132514;27;20207;-49
2023/05/13 09:20:12;;;;;;;3.58;3.28;;;;;;;31.03;41.43;95163.13;5132368;27;20188;-47
2023/05/13 09:22:51;;;;;;;3.78;3.08;;;;;;;30.88;41.73;95155.91;5131978;27;20185;-45
2023/05/13 09:25:19;;;;;;;3.90;2.88;;;;;;;30.86;41.84;95167.78;5131955;27;20606;-47
2023/05/13 09:27:48;;;;;;;6.32;2.85;;;;;;;30.77;41.41;95162.16;5132455;27;20662;-45
2023/05/13 09:30:15;;;;;;;4.47;3.17;;;;;;;30.55;41.33;95149.03;5132282;27;20192;-46
2023/05/13 09:32:42;;;;;;;3.78;3.40;;;;;;;30.52;41.58;95156.66;5131874;27;20605;-47
2023/05/13 09:35:16;;;;;;;5.93;3.00;;;;;;;30.45;41.50;95154.22;5132209;27;20195;-47
2023/05/13 09:37:47;;;;;;;4.32;3.15;;;;;;;30.33;41.26;95154.38;5132076;27;20188;-44
2023/05/13 09:40:15;;;;;;;5.38;3.10;;;;;;;30.21;41.38;95151.09;5132046;27;20181;-47
2023/05/13 09:42:43;;;;;;;4.88;3.20;;;;;;;30.02;41.42;95149.84;5131663;27;20188;-46
2023/05/13 09:45:11;;;;;;;3.33;3.00;;;;;;;29.84;41.73;95138.56;5132180;27;20211;-47
2023/05/13 09:47:39;;;;;;;7.10;3.08;;;;;;;29.66;41.39;95139.69;5132007;27;20192;-46
2023/05/13 09:50:07;;;;;;;4.32;3.40;;;;;;;29.44;41.69;95138.84;5133974;27;20226;-46
2023/05/13 09:52:36;;;;;;;4.13;3.22;;;;;;;29.19;42.24;95145.41;5134502;27;20226;-48
2023/05/13 09:55:08;;;;;;;6.22;3.72;;;;;;;29.02;42.31;95136.75;5132700;27;20191;-46
2023/05/13 09:57:36;;;;;;;6.15;3.30;;;;;;;28.83;42.33;95136.16;5132142;27;20188;-45
2023/05/13 10:00:05;;;;;;;6.45;3.65;;;;;;;28.75;42.35;95136.56;5131296;27;20195;-44
2023/05/13 10:02:33;;;;;;;4.78;3.22;;;;;;;28.68;42.19;95136.72;5131397;27;20199;-46
2023/05/13 10:05:01;;;;;;;4.80;3.45;;;;;;;28.58;41.81;95143.66;5132696;27;20184;-46
2023/05/13 10:07:28;;;;;;;6.15;3.67;;;;;;;28.56;42.05;95137.84;5131449;27;20191;-44
2023/05/13 10:09:58;;;;;;;4.45;2.92;;;;;;;28.58;41.67;95136.56;5131045;27;20196;-47
2023/05/13 10:12:27;;;;;;;4.43;3.30;;;;;;;28.63;41.33;95135.88;5131289;27;20220;-44
2023/05/13 10:14:54;;;;;;;4.68;3.42;;;;;;;28.48;41.60;95110.09;5131127;27;20564;-46
2023/05/13 10:17:23;;;;;;;4.95;3.90;;;;;;;28.66;41.68;95133.53;5131834;27;20195;-53
2023/05/13 10:19:51;;;;;;;3.20;2.90;;;;;;;28.72;41.19;95143.13;5132450;27;20204;-46
2023/05/13 10:22:26;;;;;;;3.83;3.33;;;;;;;28.69;41.24;95133.06;5131220;27;20188;-44
2023/05/13 10:24:54;;;;;;;3.72;3.38;;;;;;;28.72;41.14;95135.22;5131063;27;20227;-44
2023/05/13 10:27:22;;;;;;;6.13;3.40;;;;;;;28.72;40.93;95132.59;5130350;27;20652;-44
2023/05/13 10:29:54;;;;;;;5.25;3.50;;;;;;;28.69;41.27;95133.06;5130532;27;20295;-44
2023/05/13 10:32:22;;;;;;;4.13;3.47;;;;;;;28.64;41.17;95127.72;5130968;27;20248;-46
2023/05/13 10:34:52;;;;;;;3.50;3.20;;;;;;;28.51;41.32;95125.41;5130581;27;20204;-48
2023/05/13 10:37:43;;;;;;;4.40;3.10;;;;;;;28.49;41.27;95122.22;5131112;27;20188;-47
2023/05/13 10:40:31;;;;;;;4.07;3.60;;;;;;;28.43;40.86;95117.91;5131588;27;20192;-50
2023/05/13 10:43:11;;;;;;;3.33;3.03;;;;;;;28.49;40.91;95124.84;5131635;27;20199;-47
2023/05/13 10:45:39;;;;;;;4.55;3.30;;;;;;;28.44;41.00;95130.03;5131491;27;20184;-49
2023/05/13 10:48:07;;;;;;;4.38;3.63;;;;;;;28.30;41.09;95120.81;5130840;27;20198;-47
2023/05/13 10:50:37;;;;;;;4.68;3.47;;;;;;;28.30;41.18;95136.59;5131278;27;20188;-47
2023/05/13 10:53:10;;;;;;;5.03;3.33;;;;;;;28.19;41.40;95130.34;5130253;27;20231;-49
2023/05/13 10:55:45;;;;;;;5.22;3.42;;;;;;;28.09;40.99;95133.63;5130706;27;20224;-45
2023/05/13 10:58:13;;;;;;;6.40;3.53;;;;;;;28.01;41.41;95129.53;5130279;27;20187;-47
2023/05/13 11:00:43;;;;;;;4.80;3.70;;;;;;;27.97;41.01;95127.59;5130652;27;20191;-47
2023/05/13 11:03:15;;;;;;;7.53;3.92;;;;;;;27.93;41.35;95137.78;5130240;27;20596;-47
2023/05/13 11:05:44;;;;;;;3.80;3.50;;;;;;;27.87;41.05;95135.31;5130393;27;20237;-46
2023/05/13 11:08:11;;;;;;;3.80;3.50;;;;;;;27.80;41.32;95134.66;5130165;27;20192;-48
2023/05/13 11:10:40;;;;;;;4.15;3.70;;;;;;;26.90;41.01;95002.84;5130202;27;20223;-47
2023/05/13 11:13:09;;;;;;;5.40;3.70;;;;;;;27.65;41.09;95120.16;5130372;27;20223;-47
2023/05/13 11:15:49;;;;;;;3.53;3.22;;;;;;;27.60;41.20;95114.81;5130553;28;20184;-47
2023/05/13 11:18:16;;;;;;;4.63;3.50;;;;;;;27.45;41.27;95102.16;5129829;28;20582;-47
2023/05/13 11:20:46;;;;;;;4.95;4.03;;;;;;;27.45;41.00;95115.31;5130136;28;20778;-45
2023/05/13 11:23:18;;;;;;;3.75;3.38;;;;;;;27.39;41.22;95110.19;5129936;28;20602;-47
2023/05/13 11:25:45;;;;;;;3.83;3.53;;;;;;;27.33;41.02;95111.94;5130014;28;20224;-45
2023/05/13 11:28:17;;;;;;;6.47;3.53;;;;;;;27.28;41.45;95106.53;5129904;28;20631;-48
2023/05/13 11:30:55;;;;;;;4.30;3.90;;;;;;;26.90;41.39;95057.16;5130037;28;20243;-46
2023/05/13 11:33:22;;;;;;;4.28;3.42;;;;;;;27.13;41.38;95093.91;5130009;28;20258;-47
2023/05/13 11:35:56;;;;;;;3.75;3.45;;;;;;;27.02;41.21;95076.31;5130022;28;20203;-46
2023/05/13 11:38:24;;;;;;;4.03;3.63;;;;;;;27.05;41.15;95085.56;5129963;27;20220;-45